sensor_id;sensor_type;location;lat;lon;timestamp;temperature;humidity
11559;DHT22;5835;42.930;25.178;2023-06-14T00:00:11;17.10;99.90
11559;DHT22;5835;42.930;25.178;2023-06-14T00:02:39;17.00;99.90
11559;DHT22;5835;42.930;25.178;2023-06-14T00:05:10;17.00;99.90
11559;DHT22;5835;42.930;25.178;2023-06-14T00:07:41;17.00;99.90
11559;DHT22;5835;42.930;25.178;2023-06-14T00:10:11;17.10;99.90
11559;DHT22;5835;42.930;25.178;2023-06-14T00:12:39;17.00;99.90
11559;DHT22;5835;42.930;25.178;2023-06-14T00:15:08;17.00;99.90
11559;DHT22;5835;42.930;25.178;2023-06-14T00:17:36;17.00;99.90
11559;DHT22;5835;42.930;25.178;2023-06-14T00:20:05;17.10;99.90
11559;DHT22;5835;42.930;25.178;2023-06-14T00:22:34;17.10;99.90
11559;DHT22;5835;42.930;25.178;2023-06-14T00:25:02;17.40;99.90
11559;DHT22;5835;42.930;25.178;2023-06-14T00:27:32;17.40;99.90
11559;DHT22;5835;42.930;25.178;2023-06-14T00:29:59;17.40;99.90
11559;DHT22;5835;42.930;25.178;2023-06-14T00:32:27;17.40;99.90
11559;DHT22;5835;42.930;25.178;2023-06-14T00:34:55;17.30;99.90
11559;DHT22;5835;42.930;25.178;2023-06-14T00:37:22;17.10;99.90
11559;DHT22;5835;42.930;25.178;2023-06-14T00:39:50;17.30;99.90
11559;DHT22;5835;42.930;25.178;2023-06-14T00:42:24;17.40;99.90
11559;DHT22;5835;42.930;25.178;2023-06-14T00:44:54;17.10;99.90
11559;DHT22;5835;42.930;25.178;2023-06-14T00:47:21;16.80;99.90
11559;DHT22;5835;42.930;25.178;2023-06-14T00:49:50;16.60;99.90
11559;DHT22;5835;42.930;25.178;2023-06-14T00:52:18;16.70;99.90
11559;DHT22;5835;42.930;25.178;2023-06-14T00:54:46;16.80;99.90
11559;DHT22;5835;42.930;25.178;2023-06-14T00:57:13;16.80;99.90
11559;DHT22;5835;42.930;25.178;2023-06-14T00:59:43;16.70;99.90
11559;DHT22;5835;42.930;25.178;2023-06-14T01:02:13;16.70;99.90
11559;DHT22;5835;42.930;25.178;2023-06-14T01:04:43;16.70;99.90
11559;DHT22;5835;42.930;25.178;2023-06-14T01:07:26;16.60;99.90
11559;DHT22;5835;42.930;25.178;2023-06-14T01:13:31;16.60;99.90
11559;DHT22;5835;42.930;25.178;2023-06-14T01:16:03;16.70;99.90
11559;DHT22;5835;42.930;25.178;2023-06-14T01:18:32;16.70;99.90
11559;DHT22;5835;42.930;25.178;2023-06-14T01:21:20;16.70;99.90
11559;DHT22;5835;42.930;25.178;2023-06-14T01:23:51;16.80;99.90
11559;DHT22;5835;42.930;25.178;2023-06-14T01:26:33;16.80;99.90
11559;DHT22;5835;42.930;25.178;2023-06-14T01:29:06;16.60;99.90
11559;DHT22;5835;42.930;25.178;2023-06-14T01:31:48;16.60;99.90
11559;DHT22;5835;42.930;25.178;2023-06-14T01:34:18;16.60;99.90
11559;DHT22;5835;42.930;25.178;2023-06-14T01:36:46;16.60;99.90
11559;DHT22;5835;42.930;25.178;2023-06-14T01:39:17;16.60;99.90
11559;DHT22;5835;42.930;25.178;2023-06-14T01:41:48;16.60;99.90
11559;DHT22;5835;42.930;25.178;2023-06-14T01:44:17;16.50;99.90
11559;DHT22;5835;42.930;25.178;2023-06-14T01:46:46;16.30;99.90
11559;DHT22;5835;42.930;25.178;2023-06-14T01:49:13;16.20;99.90
11559;DHT22;5835;42.930;25.178;2023-06-14T01:51:41;16.20;99.90
11559;DHT22;5835;42.930;25.178;2023-06-14T01:54:10;16.30;99.90
11559;DHT22;5835;42.930;25.178;2023-06-14T01:56:39;16.30;99.90
11559;DHT22;5835;42.930;25.178;2023-06-14T01:59:06;16.30;99.90
11559;DHT22;5835;42.930;25.178;2023-06-14T02:01:34;16.30;99.90
11559;DHT22;5835;42.930;25.178;2023-06-14T02:04:03;16.30;99.90
11559;DHT22;5835;42.930;25.178;2023-06-14T02:06:32;16.30;99.90
11559;DHT22;5835;42.930;25.178;2023-06-14T02:09:01;16.40;99.90
11559;DHT22;5835;42.930;25.178;2023-06-14T02:11:29;16.40;99.90
11559;DHT22;5835;42.930;25.178;2023-06-14T02:14:06;16.30;99.90
11559;DHT22;5835;42.930;25.178;2023-06-14T02:16:36;16.40;99.90
11559;DHT22;5835;42.930;25.178;2023-06-14T02:19:04;16.40;99.90
11559;DHT22;5835;42.930;25.178;2023-06-14T02:21:33;16.40;99.90
11559;DHT22;5835;42.930;25.178;2023-06-14T02:24:01;16.40;99.90
11559;DHT22;5835;42.930;25.178;2023-06-14T02:26:32;16.50;99.90
11559;DHT22;5835;42.930;25.178;2023-06-14T02:29:01;16.80;99.90
11559;DHT22;5835;42.930;25.178;2023-06-14T02:31:31;16.50;99.90
11559;DHT22;5835;42.930;25.178;2023-06-14T02:34:01;16.50;99.90
11559;DHT22;5835;42.930;25.178;2023-06-14T02:36:30;17.00;99.90
11559;DHT22;5835;42.930;25.178;2023-06-14T02:38:57;17.20;99.90
11559;DHT22;5835;42.930;25.178;2023-06-14T02:41:25;17.10;99.90
11559;DHT22;5835;42.930;25.178;2023-06-14T02:43:54;17.70;99.90
11559;DHT22;5835;42.930;25.178;2023-06-14T02:46:23;17.70;99.90
11559;DHT22;5835;42.930;25.178;2023-06-14T02:48:51;17.90;99.90
11559;DHT22;5835;42.930;25.178;2023-06-14T02:51:19;18.30;99.90
11559;DHT22;5835;42.930;25.178;2023-06-14T02:53:47;17.90;99.90
11559;DHT22;5835;42.930;25.178;2023-06-14T02:56:23;18.40;99.90
11559;DHT22;5835;42.930;25.178;2023-06-14T02:58:52;18.20;99.90
11559;DHT22;5835;42.930;25.178;2023-06-14T03:01:20;18.20;99.90
11559;DHT22;5835;42.930;25.178;2023-06-14T03:03:50;18.40;99.90
11559;DHT22;5835;42.930;25.178;2023-06-14T03:06:18;17.70;99.90
11559;DHT22;5835;42.930;25.178;2023-06-14T03:08:46;17.60;99.90
11559;DHT22;5835;42.930;25.178;2023-06-14T03:11:16;17.10;99.90
11559;DHT22;5835;42.930;25.178;2023-06-14T03:13:48;17.10;99.90
11559;DHT22;5835;42.930;25.178;2023-06-14T03:16:16;16.60;99.90
11559;DHT22;5835;42.930;25.178;2023-06-14T03:18:45;16.50;99.90
11559;DHT22;5835;42.930;25.178;2023-06-14T03:21:14;16.30;99.90
11559;DHT22;5835;42.930;25.178;2023-06-14T03:23:43;16.30;99.90
11559;DHT22;5835;42.930;25.178;2023-06-14T03:26:11;16.50;99.90
11559;DHT22;5835;42.930;25.178;2023-06-14T03:28:41;16.80;99.90
11559;DHT22;5835;42.930;25.178;2023-06-14T03:31:09;16.80;99.90
11559;DHT22;5835;42.930;25.178;2023-06-14T03:33:42;16.80;99.90
11559;DHT22;5835;42.930;25.178;2023-06-14T03:36:10;17.00;99.90
11559;DHT22;5835;42.930;25.178;2023-06-14T03:38:39;16.70;99.90
11559;DHT22;5835;42.930;25.178;2023-06-14T03:41:07;16.90;99.90
11559;DHT22;5835;42.930;25.178;2023-06-14T03:43:35;17.10;99.90
11559;DHT22;5835;42.930;25.178;2023-06-14T03:46:02;17.00;99.90
11559;DHT22;5835;42.930;25.178;2023-06-14T03:48:33;17.70;99.90
11559;DHT22;5835;42.930;25.178;2023-06-14T03:51:04;17.50;99.90
11559;DHT22;5835;42.930;25.178;2023-06-14T03:53:32;16.90;99.90
11559;DHT22;5835;42.930;25.178;2023-06-14T03:56:03;17.20;99.90
11559;DHT22;5835;42.930;25.178;2023-06-14T03:58:31;16.50;99.90
11559;DHT22;5835;42.930;25.178;2023-06-14T04:00:59;16.40;99.90
11559;DHT22;5835;42.930;25.178;2023-06-14T04:03:27;16.40;99.90
11559;DHT22;5835;42.930;25.178;2023-06-14T04:05:55;16.20;99.90
11559;DHT22;5835;42.930;25.178;2023-06-14T04:08:25;16.10;99.90
11559;DHT22;5835;42.930;25.178;2023-06-14T04:10:56;16.10;99.90
11559;DHT22;5835;42.930;25.178;2023-06-14T04:13:25;16.10;99.90
11559;DHT22;5835;42.930;25.178;2023-06-14T04:15:53;16.10;99.90
11559;DHT22;5835;42.930;25.178;2023-06-14T04:18:22;16.00;99.90
11559;DHT22;5835;42.930;25.178;2023-06-14T04:20:50;16.10;99.90
11559;DHT22;5835;42.930;25.178;2023-06-14T04:23:19;16.00;99.90
11559;DHT22;5835;42.930;25.178;2023-06-14T04:25:47;16.00;99.90
11559;DHT22;5835;42.930;25.178;2023-06-14T04:28:15;15.90;99.90
11559;DHT22;5835;42.930;25.178;2023-06-14T04:30:44;15.90;99.90
11559;DHT22;5835;42.930;25.178;2023-06-14T04:33:13;15.90;99.90
11559;DHT22;5835;42.930;25.178;2023-06-14T04:35:40;15.90;99.90
11559;DHT22;5835;42.930;25.178;2023-06-14T04:38:09;15.90;99.90
11559;DHT22;5835;42.930;25.178;2023-06-14T04:40:37;15.90;99.90
11559;DHT22;5835;42.930;25.178;2023-06-14T04:43:08;15.90;99.90
11559;DHT22;5835;42.930;25.178;2023-06-14T04:45:38;15.90;99.90
11559;DHT22;5835;42.930;25.178;2023-06-14T04:48:08;15.90;99.90
11559;DHT22;5835;42.930;25.178;2023-06-14T04:50:36;16.00;99.90
11559;DHT22;5835;42.930;25.178;2023-06-14T04:53:06;16.00;99.90
11559;DHT22;5835;42.930;25.178;2023-06-14T04:55:34;16.00;99.90
11559;DHT22;5835;42.930;25.178;2023-06-14T04:58:01;15.90;99.90
11559;DHT22;5835;42.930;25.178;2023-06-14T05:00:29;16.00;99.90
11559;DHT22;5835;42.930;25.178;2023-06-14T05:02:58;16.10;99.90
11559;DHT22;5835;42.930;25.178;2023-06-14T05:05:28;16.00;99.90
11559;DHT22;5835;42.930;25.178;2023-06-14T05:07:55;15.90;99.90
11559;DHT22;5835;42.930;25.178;2023-06-14T05:10:22;16.00;99.90
11559;DHT22;5835;42.930;25.178;2023-06-14T05:12:50;16.00;99.90
11559;DHT22;5835;42.930;25.178;2023-06-14T05:15:18;16.10;99.90
11559;DHT22;5835;42.930;25.178;2023-06-14T05:17:51;16.00;99.90
11559;DHT22;5835;42.930;25.178;2023-06-14T05:20:21;16.00;99.90
11559;DHT22;5835;42.930;25.178;2023-06-14T05:22:52;16.10;99.90
11559;DHT22;5835;42.930;25.178;2023-06-14T05:25:20;16.30;99.90
11559;DHT22;5835;42.930;25.178;2023-06-14T05:27:48;16.20;99.90
11559;DHT22;5835;42.930;25.178;2023-06-14T05:30:15;16.10;99.90
11559;DHT22;5835;42.930;25.178;2023-06-14T05:32:43;16.10;99.90
11559;DHT22;5835;42.930;25.178;2023-06-14T05:35:11;16.10;99.90
11559;DHT22;5835;42.930;25.178;2023-06-14T05:37:38;16.10;99.90
11559;DHT22;5835;42.930;25.178;2023-06-14T05:40:08;16.10;99.90
11559;DHT22;5835;42.930;25.178;2023-06-14T05:42:36;16.20;99.90
11559;DHT22;5835;42.930;25.178;2023-06-14T05:45:04;16.10;99.90
11559;DHT22;5835;42.930;25.178;2023-06-14T05:47:32;16.00;99.90
11559;DHT22;5835;42.930;25.178;2023-06-14T05:49:59;16.00;99.90
11559;DHT22;5835;42.930;25.178;2023-06-14T05:52:27;16.20;99.90
11559;DHT22;5835;42.930;25.178;2023-06-14T05:54:55;16.10;99.90
11559;DHT22;5835;42.930;25.178;2023-06-14T05:57:24;16.10;99.90
11559;DHT22;5835;42.930;25.178;2023-06-14T05:59:51;16.10;99.90
11559;DHT22;5835;42.930;25.178;2023-06-14T06:02:19;16.20;99.90
11559;DHT22;5835;42.930;25.178;2023-06-14T06:04:46;16.10;99.90
11559;DHT22;5835;42.930;25.178;2023-06-14T06:07:14;16.30;99.90
11559;DHT22;5835;42.930;25.178;2023-06-14T06:09:44;16.40;99.90
11559;DHT22;5835;42.930;25.178;2023-06-14T06:12:12;16.20;99.90
11559;DHT22;5835;42.930;25.178;2023-06-14T06:14:41;16.30;99.90
11559;DHT22;5835;42.930;25.178;2023-06-14T06:17:09;16.40;99.90
11559;DHT22;5835;42.930;25.178;2023-06-14T06:19:36;16.50;99.90
11559;DHT22;5835;42.930;25.178;2023-06-14T06:22:04;16.40;99.90
11559;DHT22;5835;42.930;25.178;2023-06-14T06:24:32;16.50;99.90
11559;DHT22;5835;42.930;25.178;2023-06-14T06:27:00;16.50;99.90
11559;DHT22;5835;42.930;25.178;2023-06-14T06:29:28;16.50;99.90
11559;DHT22;5835;42.930;25.178;2023-06-14T06:31:57;16.60;99.90
11559;DHT22;5835;42.930;25.178;2023-06-14T06:34:24;16.60;99.90
11559;DHT22;5835;42.930;25.178;2023-06-14T06:36:52;16.70;99.90
11559;DHT22;5835;42.930;25.178;2023-06-14T06:39:19;16.70;99.90
11559;DHT22;5835;42.930;25.178;2023-06-14T06:41:46;16.90;99.90
11559;DHT22;5835;42.930;25.178;2023-06-14T06:44:14;16.80;99.90
11559;DHT22;5835;42.930;25.178;2023-06-14T06:46:41;16.80;99.90
11559;DHT22;5835;42.930;25.178;2023-06-14T06:49:10;16.90;99.90
11559;DHT22;5835;42.930;25.178;2023-06-14T06:51:41;17.10;99.90
11559;DHT22;5835;42.930;25.178;2023-06-14T06:54:09;17.10;99.90
11559;DHT22;5835;42.930;25.178;2023-06-14T06:56:36;17.40;99.90
11559;DHT22;5835;42.930;25.178;2023-06-14T06:59:04;17.80;99.90
11559;DHT22;5835;42.930;25.178;2023-06-14T07:01:32;17.90;99.90
11559;DHT22;5835;42.930;25.178;2023-06-14T07:03:59;18.00;99.90
11559;DHT22;5835;42.930;25.178;2023-06-14T07:06:29;18.00;99.90
11559;DHT22;5835;42.930;25.178;2023-06-14T07:08:58;18.30;99.90
11559;DHT22;5835;42.930;25.178;2023-06-14T07:11:27;18.50;99.90
11559;DHT22;5835;42.930;25.178;2023-06-14T07:13:54;18.90;99.90
11559;DHT22;5835;42.930;25.178;2023-06-14T07:16:22;19.10;99.90
11559;DHT22;5835;42.930;25.178;2023-06-14T07:18:49;19.20;99.90
11559;DHT22;5835;42.930;25.178;2023-06-14T07:21:17;19.20;99.90
11559;DHT22;5835;42.930;25.178;2023-06-14T07:23:46;19.30;99.90
11559;DHT22;5835;42.930;25.178;2023-06-14T07:26:13;19.30;99.90
11559;DHT22;5835;42.930;25.178;2023-06-14T07:28:41;19.40;99.90
11559;DHT22;5835;42.930;25.178;2023-06-14T07:31:10;19.30;99.90
11559;DHT22;5835;42.930;25.178;2023-06-14T07:33:39;18.90;99.90
11559;DHT22;5835;42.930;25.178;2023-06-14T07:36:07;18.80;99.90
11559;DHT22;5835;42.930;25.178;2023-06-14T07:38:34;18.80;99.90
11559;DHT22;5835;42.930;25.178;2023-06-14T07:41:04;19.00;99.90
11559;DHT22;5835;42.930;25.178;2023-06-14T07:43:31;19.10;99.90
11559;DHT22;5835;42.930;25.178;2023-06-14T07:45:59;19.10;99.90
11559;DHT22;5835;42.930;25.178;2023-06-14T07:48:27;19.10;99.90
11559;DHT22;5835;42.930;25.178;2023-06-14T07:50:54;19.30;99.90
11559;DHT22;5835;42.930;25.178;2023-06-14T07:53:22;19.20;99.90
11559;DHT22;5835;42.930;25.178;2023-06-14T07:55:50;19.10;99.90
11559;DHT22;5835;42.930;25.178;2023-06-14T07:58:19;18.80;99.90
11559;DHT22;5835;42.930;25.178;2023-06-14T08:00:46;18.80;99.90
11559;DHT22;5835;42.930;25.178;2023-06-14T08:03:14;18.80;99.90
11559;DHT22;5835;42.930;25.178;2023-06-14T08:05:42;18.70;99.90
11559;DHT22;5835;42.930;25.178;2023-06-14T08:08:09;18.70;99.90
11559;DHT22;5835;42.930;25.178;2023-06-14T08:10:37;18.60;99.90
11559;DHT22;5835;42.930;25.178;2023-06-14T08:13:05;18.50;99.90
11559;DHT22;5835;42.930;25.178;2023-06-14T08:15:34;18.60;99.90
11559;DHT22;5835;42.930;25.178;2023-06-14T08:18:01;18.50;99.90
11559;DHT22;5835;42.930;25.178;2023-06-14T08:20:29;18.50;99.90
11559;DHT22;5835;42.930;25.178;2023-06-14T08:22:57;18.60;99.90
11559;DHT22;5835;42.930;25.178;2023-06-14T08:25:25;18.60;99.90
11559;DHT22;5835;42.930;25.178;2023-06-14T08:27:53;18.60;99.90
11559;DHT22;5835;42.930;25.178;2023-06-14T08:30:20;18.60;99.90
11559;DHT22;5835;42.930;25.178;2023-06-14T08:32:50;18.50;99.90
11559;DHT22;5835;42.930;25.178;2023-06-14T08:35:18;18.50;99.90
11559;DHT22;5835;42.930;25.178;2023-06-14T08:37:45;18.80;99.90
11559;DHT22;5835;42.930;25.178;2023-06-14T08:40:19;18.90;99.90
11559;DHT22;5835;42.930;25.178;2023-06-14T08:42:51;19.20;99.90
11559;DHT22;5835;42.930;25.178;2023-06-14T08:45:19;19.40;99.90
11559;DHT22;5835;42.930;25.178;2023-06-14T08:47:51;19.60;99.90
11559;DHT22;5835;42.930;25.178;2023-06-14T08:50:24;19.50;99.90
11559;DHT22;5835;42.930;25.178;2023-06-14T08:52:56;19.40;99.90
11559;DHT22;5835;42.930;25.178;2023-06-14T08:55:27;19.60;99.90
11559;DHT22;5835;42.930;25.178;2023-06-14T08:57:56;19.70;99.90
11559;DHT22;5835;42.930;25.178;2023-06-14T09:00:25;19.80;99.90
11559;DHT22;5835;42.930;25.178;2023-06-14T09:02:55;19.80;98.70
11559;DHT22;5835;42.930;25.178;2023-06-14T09:05:25;20.00;99.90
11559;DHT22;5835;42.930;25.178;2023-06-14T09:07:53;20.00;99.90
11559;DHT22;5835;42.930;25.178;2023-06-14T09:10:22;20.20;1.00
11559;DHT22;5835;42.930;25.178;2023-06-14T09:12:51;20.40;1.00
11559;DHT22;5835;42.930;25.178;2023-06-14T09:15:19;20.40;1.00
11559;DHT22;5835;42.930;25.178;2023-06-14T09:17:48;20.50;1.00
11559;DHT22;5835;42.930;25.178;2023-06-14T09:20:17;20.30;1.00
11559;DHT22;5835;42.930;25.178;2023-06-14T09:22:45;20.00;1.00
11559;DHT22;5835;42.930;25.178;2023-06-14T09:25:12;20.60;99.90
11559;DHT22;5835;42.930;25.178;2023-06-14T09:27:41;20.70;1.00
11559;DHT22;5835;42.930;25.178;2023-06-14T09:30:10;20.90;1.00
11559;DHT22;5835;42.930;25.178;2023-06-14T09:32:38;20.90;1.00
11559;DHT22;5835;42.930;25.178;2023-06-14T09:35:07;21.30;73.70
11559;DHT22;5835;42.930;25.178;2023-06-14T09:37:36;21.10;99.90
11559;DHT22;5835;42.930;25.178;2023-06-14T09:40:05;21.60;99.90
11559;DHT22;5835;42.930;25.178;2023-06-14T09:42:34;22.20;99.90
11559;DHT22;5835;42.930;25.178;2023-06-14T09:45:03;21.50;99.90
11559;DHT22;5835;42.930;25.178;2023-06-14T09:47:31;21.60;1.00
11559;DHT22;5835;42.930;25.178;2023-06-14T09:49:59;21.50;28.60
11559;DHT22;5835;42.930;25.178;2023-06-14T09:52:27;22.00;99.90
11559;DHT22;5835;42.930;25.178;2023-06-14T09:54:59;21.90;1.00
11559;DHT22;5835;42.930;25.178;2023-06-14T09:57:28;21.70;1.00
11559;DHT22;5835;42.930;25.178;2023-06-14T10:00:01;21.70;99.90
11559;DHT22;5835;42.930;25.178;2023-06-14T10:02:36;21.80;1.00
11559;DHT22;5835;42.930;25.178;2023-06-14T10:05:06;22.30;99.90
11559;DHT22;5835;42.930;25.178;2023-06-14T10:07:40;22.80;6.60
11559;DHT22;5835;42.930;25.178;2023-06-14T10:10:10;23.20;99.90
11559;DHT22;5835;42.930;25.178;2023-06-14T10:12:38;23.80;4.00
11559;DHT22;5835;42.930;25.178;2023-06-14T10:15:07;23.80;1.00
11559;DHT22;5835;42.930;25.178;2023-06-14T10:17:41;24.10;1.00
11559;DHT22;5835;42.930;25.178;2023-06-14T10:20:21;23.60;99.90
11559;DHT22;5835;42.930;25.178;2023-06-14T10:22:59;23.50;1.00
11559;DHT22;5835;42.930;25.178;2023-06-14T10:25:30;23.50;1.00
11559;DHT22;5835;42.930;25.178;2023-06-14T10:28:14;23.30;99.90
11559;DHT22;5835;42.930;25.178;2023-06-14T10:31:06;23.60;99.90
11559;DHT22;5835;42.930;25.178;2023-06-14T10:33:35;23.70;99.90
11559;DHT22;5835;42.930;25.178;2023-06-14T10:36:10;24.00;99.90
11559;DHT22;5835;42.930;25.178;2023-06-14T10:38:57;24.40;99.90
11559;DHT22;5835;42.930;25.178;2023-06-14T10:41:28;24.40;99.90
11559;DHT22;5835;42.930;25.178;2023-06-14T10:44:33;24.70;99.90
11559;DHT22;5835;42.930;25.178;2023-06-14T10:47:01;25.10;61.40
11559;DHT22;5835;42.930;25.178;2023-06-14T10:49:39;25.20;15.50
11559;DHT22;5835;42.930;25.178;2023-06-14T10:52:14;25.30;16.10
11559;DHT22;5835;42.930;25.178;2023-06-14T10:55:06;25.30;20.40
11559;DHT22;5835;42.930;25.178;2023-06-14T10:57:39;25.20;15.90
11559;DHT22;5835;42.930;25.178;2023-06-14T11:00:08;25.40;29.50
11559;DHT22;5835;42.930;25.178;2023-06-14T11:05:51;26.00;1.00
11559;DHT22;5835;42.930;25.178;2023-06-14T11:09:06;26.30;1.00
11559;DHT22;5835;42.930;25.178;2023-06-14T11:11:38;26.60;1.00
11559;DHT22;5835;42.930;25.178;2023-06-14T11:14:10;26.70;1.00
11559;DHT22;5835;42.930;25.178;2023-06-14T11:16:39;25.80;1.00
11559;DHT22;5835;42.930;25.178;2023-06-14T11:19:06;26.10;1.00
11559;DHT22;5835;42.930;25.178;2023-06-14T11:21:39;26.20;1.00
11559;DHT22;5835;42.930;25.178;2023-06-14T11:24:10;26.50;1.00
11559;DHT22;5835;42.930;25.178;2023-06-14T11:26:39;27.40;1.00
11559;DHT22;5835;42.930;25.178;2023-06-14T11:29:07;27.20;1.00
11559;DHT22;5835;42.930;25.178;2023-06-14T11:31:36;27.70;1.00
11559;DHT22;5835;42.930;25.178;2023-06-14T11:34:04;28.20;1.00
11559;DHT22;5835;42.930;25.178;2023-06-14T11:36:34;27.80;1.00
11559;DHT22;5835;42.930;25.178;2023-06-14T11:39:02;28.60;1.00
11559;DHT22;5835;42.930;25.178;2023-06-14T11:41:36;28.80;1.00
11559;DHT22;5835;42.930;25.178;2023-06-14T11:44:05;26.70;1.00
11559;DHT22;5835;42.930;25.178;2023-06-14T11:46:33;26.40;1.00
11559;DHT22;5835;42.930;25.178;2023-06-14T11:49:02;27.50;1.00
11559;DHT22;5835;42.930;25.178;2023-06-14T11:51:31;28.40;1.00
11559;DHT22;5835;42.930;25.178;2023-06-14T11:53:59;28.60;1.00
11559;DHT22;5835;42.930;25.178;2023-06-14T11:56:28;28.80;1.00
11559;DHT22;5835;42.930;25.178;2023-06-14T11:58:56;28.80;1.00
11559;DHT22;5835;42.930;25.178;2023-06-14T12:01:23;28.70;1.00
11559;DHT22;5835;42.930;25.178;2023-06-14T12:03:53;28.50;1.00
11559;DHT22;5835;42.930;25.178;2023-06-14T12:06:30;29.00;1.00
11559;DHT22;5835;42.930;25.178;2023-06-14T12:09:03;29.00;1.00
11559;DHT22;5835;42.930;25.178;2023-06-14T12:11:33;28.30;1.00
11559;DHT22;5835;42.930;25.178;2023-06-14T12:14:03;29.10;1.00
11559;DHT22;5835;42.930;25.178;2023-06-14T12:16:32;28.90;1.00
11559;DHT22;5835;42.930;25.178;2023-06-14T12:19:17;29.30;1.00
11559;DHT22;5835;42.930;25.178;2023-06-14T12:21:48;29.40;1.00
11559;DHT22;5835;42.930;25.178;2023-06-14T12:24:17;29.50;1.00
11559;DHT22;5835;42.930;25.178;2023-06-14T12:26:44;29.30;1.00
11559;DHT22;5835;42.930;25.178;2023-06-14T12:29:12;29.00;1.00
11559;DHT22;5835;42.930;25.178;2023-06-14T12:31:40;28.80;1.00
11559;DHT22;5835;42.930;25.178;2023-06-14T12:34:08;28.80;1.00
11559;DHT22;5835;42.930;25.178;2023-06-14T12:36:36;28.60;1.00
11559;DHT22;5835;42.930;25.178;2023-06-14T12:39:09;28.40;1.00
11559;DHT22;5835;42.930;25.178;2023-06-14T12:41:36;28.40;1.00
11559;DHT22;5835;42.930;25.178;2023-06-14T12:44:04;28.30;1.00
11559;DHT22;5835;42.930;25.178;2023-06-14T12:46:32;28.10;1.00
11559;DHT22;5835;42.930;25.178;2023-06-14T12:49:00;28.10;1.00
11559;DHT22;5835;42.930;25.178;2023-06-14T12:51:28;28.10;1.00
11559;DHT22;5835;42.930;25.178;2023-06-14T12:53:55;28.10;1.00
11559;DHT22;5835;42.930;25.178;2023-06-14T12:56:25;27.90;1.00
11559;DHT22;5835;42.930;25.178;2023-06-14T12:58:53;27.90;1.00
11559;DHT22;5835;42.930;25.178;2023-06-14T13:01:20;27.80;1.00
11559;DHT22;5835;42.930;25.178;2023-06-14T13:03:48;27.70;1.00
11559;DHT22;5835;42.930;25.178;2023-06-14T13:06:17;27.50;1.00
11559;DHT22;5835;42.930;25.178;2023-06-14T13:08:45;27.60;1.00
11559;DHT22;5835;42.930;25.178;2023-06-14T13:11:12;27.50;1.00
11559;DHT22;5835;42.930;25.178;2023-06-14T13:13:41;27.60;1.00
11559;DHT22;5835;42.930;25.178;2023-06-14T13:16:09;27.60;1.00
11559;DHT22;5835;42.930;25.178;2023-06-14T13:18:39;27.40;1.00
11559;DHT22;5835;42.930;25.178;2023-06-14T13:21:06;27.50;1.00
11559;DHT22;5835;42.930;25.178;2023-06-14T13:23:34;27.40;1.00
11559;DHT22;5835;42.930;25.178;2023-06-14T13:26:01;27.40;1.00
11559;DHT22;5835;42.930;25.178;2023-06-14T13:28:29;27.30;1.00
11559;DHT22;5835;42.930;25.178;2023-06-14T13:30:58;27.50;1.00
11559;DHT22;5835;42.930;25.178;2023-06-14T13:33:26;27.40;1.00
11559;DHT22;5835;42.930;25.178;2023-06-14T13:35:54;27.50;1.00
11559;DHT22;5835;42.930;25.178;2023-06-14T13:38:22;27.50;1.00
11559;DHT22;5835;42.930;25.178;2023-06-14T13:40:49;27.80;1.00
11559;DHT22;5835;42.930;25.178;2023-06-14T13:43:17;27.60;1.00
11559;DHT22;5835;42.930;25.178;2023-06-14T13:45:44;27.40;1.00
11559;DHT22;5835;42.930;25.178;2023-06-14T13:48:13;27.50;1.00
11559;DHT22;5835;42.930;25.178;2023-06-14T13:50:41;28.00;1.00
11559;DHT22;5835;42.930;25.178;2023-06-14T13:53:08;28.40;1.00
11559;DHT22;5835;42.930;25.178;2023-06-14T13:55:36;28.40;1.00
11559;DHT22;5835;42.930;25.178;2023-06-14T13:58:03;28.40;1.00
11559;DHT22;5835;42.930;25.178;2023-06-14T14:00:31;28.30;1.00
11559;DHT22;5835;42.930;25.178;2023-06-14T14:02:59;28.20;1.00
11559;DHT22;5835;42.930;25.178;2023-06-14T14:05:28;28.30;1.00
11559;DHT22;5835;42.930;25.178;2023-06-14T14:07:56;28.50;1.00
11559;DHT22;5835;42.930;25.178;2023-06-14T14:10:24;28.40;1.00
11559;DHT22;5835;42.930;25.178;2023-06-14T14:12:52;28.90;1.00
11559;DHT22;5835;42.930;25.178;2023-06-14T14:15:20;29.10;1.00
11559;DHT22;5835;42.930;25.178;2023-06-14T14:17:48;29.10;1.00
11559;DHT22;5835;42.930;25.178;2023-06-14T14:20:16;30.00;1.00
11559;DHT22;5835;42.930;25.178;2023-06-14T14:22:44;30.20;1.00
11559;DHT22;5835;42.930;25.178;2023-06-14T14:25:12;29.90;1.00
11559;DHT22;5835;42.930;25.178;2023-06-14T14:27:40;29.70;1.00
11559;DHT22;5835;42.930;25.178;2023-06-14T14:30:08;29.40;1.00
11559;DHT22;5835;42.930;25.178;2023-06-14T14:32:36;29.50;1.00
11559;DHT22;5835;42.930;25.178;2023-06-14T14:35:04;29.50;1.00
11559;DHT22;5835;42.930;25.178;2023-06-14T14:37:32;29.50;1.00
11559;DHT22;5835;42.930;25.178;2023-06-14T14:40:01;30.20;1.00
11559;DHT22;5835;42.930;25.178;2023-06-14T14:42:29;31.10;1.00
11559;DHT22;5835;42.930;25.178;2023-06-14T14:44:57;31.50;1.00
11559;DHT22;5835;42.930;25.178;2023-06-14T14:47:24;31.40;1.00
11559;DHT22;5835;42.930;25.178;2023-06-14T14:49:52;31.40;1.00
11559;DHT22;5835;42.930;25.178;2023-06-14T14:52:20;31.70;1.00
11559;DHT22;5835;42.930;25.178;2023-06-14T14:54:47;31.30;1.00
11559;DHT22;5835;42.930;25.178;2023-06-14T14:57:16;31.80;1.00
11559;DHT22;5835;42.930;25.178;2023-06-14T14:59:44;31.50;1.00
11559;DHT22;5835;42.930;25.178;2023-06-14T15:02:11;31.90;1.00
11559;DHT22;5835;42.930;25.178;2023-06-14T15:04:39;31.80;1.00
11559;DHT22;5835;42.930;25.178;2023-06-14T15:07:06;31.80;1.00
11559;DHT22;5835;42.930;25.178;2023-06-14T15:09:34;31.90;1.00
11559;DHT22;5835;42.930;25.178;2023-06-14T15:12:01;32.20;1.00
11559;DHT22;5835;42.930;25.178;2023-06-14T15:14:31;32.60;1.00
11559;DHT22;5835;42.930;25.178;2023-06-14T15:16:58;32.20;1.00
11559;DHT22;5835;42.930;25.178;2023-06-14T15:19:27;32.10;1.00
11559;DHT22;5835;42.930;25.178;2023-06-14T15:21:55;32.40;1.00
11559;DHT22;5835;42.930;25.178;2023-06-14T15:24:23;32.40;1.00
11559;DHT22;5835;42.930;25.178;2023-06-14T15:26:50;32.10;1.00
11559;DHT22;5835;42.930;25.178;2023-06-14T15:29:18;31.60;1.00
11559;DHT22;5835;42.930;25.178;2023-06-14T15:31:47;31.10;1.00
11559;DHT22;5835;42.930;25.178;2023-06-14T15:34:14;30.40;1.00
11559;DHT22;5835;42.930;25.178;2023-06-14T15:36:42;30.20;1.00
11559;DHT22;5835;42.930;25.178;2023-06-14T15:39:09;30.50;1.00
11559;DHT22;5835;42.930;25.178;2023-06-14T15:41:37;30.60;1.00
11559;DHT22;5835;42.930;25.178;2023-06-14T15:44:04;30.30;1.00
11559;DHT22;5835;42.930;25.178;2023-06-14T15:46:32;30.60;1.00
11559;DHT22;5835;42.930;25.178;2023-06-14T15:49:01;30.50;1.00
11559;DHT22;5835;42.930;25.178;2023-06-14T15:51:29;30.50;1.00
11559;DHT22;5835;42.930;25.178;2023-06-14T15:53:56;30.20;1.00
11559;DHT22;5835;42.930;25.178;2023-06-14T15:56:24;30.00;1.00